Flight Track Log - Related Links

Times and Time Zones

All times are in EDT time to prevent confusion due to time zone crossing. See the SWA554 flight status page for this flight to view local times or setup timezone preferences in your user account.

Time Position Orientation Groundspeed Altitude Reporting Facility
EDT Latitude Longitude Course Direction KTS MPH feet Rate Location/Type
Fri 02:42:50 PM 42.8497 -87.8636 162° South 214 246 4,500  Level Chicago Center
Fri 02:43:52 PM 42.7783 -87.8317 162° South 260 299 6,900 2,640 Climbing Chicago Center
Fri 02:44:55 PM 42.6997 -87.8117 169° South 281 323 10,000 3,168 Climbing Chicago Center
Fri 02:45:57 PM 42.6169 -87.7947 171° South 295 339 13,500 3,339 Climbing Chicago Center
Fri 02:46:59 PM 42.5314 -87.7664 166° South 314 361 16,900 3,048 Climbing Chicago Center
Fri 02:48:01 PM 42.4322 -87.7100 157° South 354 407 19,800 2,565 Climbing Chicago Center
Fri 02:49:03 PM 42.3358 -87.6575 158° South 370 426 22,200 2,468 Climbing Chicago Center
Fri 02:50:05 PM 42.2325 -87.6022 158° South 393 452 24,900 2,468 Climbing Chicago Center
Fri 02:51:07 PM 42.1278 -87.5447 158° South 403 464 27,300 2,177 Climbing Chicago Center
Fri 02:52:09 PM 42.0056 -87.4517 150° Southeast 427 491 29,400 1,935 Climbing Chicago Center
Fri 02:53:11 PM 41.9769 -87.2875 103° East 462 532 31,300 1,597 Climbing Chicago Center
Fri 02:54:13 PM 41.9753 -87.1103 91° East 472 543 32,700 1,306 Climbing Chicago Center
Fri 02:55:15 PM 41.9711 -86.9281 92° East 484 557 34,000 1,200 Climbing Chicago Center
Fri 02:56:18 PM 41.9672 -86.7433 92° East 493 567 35,200 1,200 Climbing Chicago Center
Fri 02:57:20 PM 41.9639 -86.5525 91° East 501 577 36,500 1,258 Climbing Chicago Center
Fri 02:58:22 PM 41.9600 -86.3647 92° East 503 579 37,800 1,210 Climbing Chicago Center
Fri 02:59:24 PM 41.9425 -86.1456 96° East 491 565 39,000 581 Climbing Chicago Center
Fri 03:00:26 PM 41.9067 -85.9689 105° East 490 564 39,000  Level Chicago Center
Fri 03:01:28 PM 41.8722 -85.7931 105° East 488 562 39,000  Level Chicago Center
Fri 03:02:30 PM 41.8367 -85.6164 105° East 488 562 39,000  Level Chicago Center
Fri 03:03:32 PM 41.8008 -85.4378 105° East 489 563 39,000  Level Chicago Center
Fri 03:04:34 PM 41.7644 -85.2592 105° East 486 559 39,000  Level Chicago Center
Fri 03:05:21 PM 41.7389 -85.1169 103° East 498 573 39,000  Level Cleveland Center
Fri 03:06:21 PM 41.7017 -84.9444 106° East 498 573 39,000  Level Cleveland Center
Fri 03:07:21 PM 41.6672 -84.7503 103° East 492 566 39,000  Level Cleveland Center
Fri 03:08:21 PM 41.6572 -84.5689 94° East 487 560 39,000  Level Cleveland Center
Fri 03:09:21 PM 41.6086 -84.4019 111° Southeast 482 555 39,000  Level Cleveland Center
Fri 03:09:45 PM 41.5842 -84.3497 122° Southeast 483 556 39,000  Level Chicago Center
Fri 03:10:21 PM 41.5469 -84.2431 115° Southeast 476 548 39,000  Level Cleveland Center
Fri 03:11:21 PM 41.4853 -84.0869 118° Southeast 476 548 39,000  Level Cleveland Center
Fri 03:12:21 PM 41.4233 -83.9286 118° Southeast 482 555 39,000  Level Cleveland Center
Fri 03:13:21 PM 41.3611 -83.7703 118° Southeast 482 555 39,000  Level Cleveland Center
Fri 03:14:21 PM 41.3028 -83.6128 116° Southeast 482 555 39,000  Level Cleveland Center
Fri 03:15:21 PM 41.2422 -83.4581 117° Southeast 477 549 39,000  Level Cleveland Center
Fri 03:16:21 PM 41.1814 -83.2953 116° Southeast 482 555 39,000  Level Cleveland Center
Fri 03:17:21 PM 41.1306 -83.1581 116° Southeast 475 547 39,000  Level Cleveland Center
Fri 03:18:21 PM 41.0672 -82.9986 118° Southeast 480 552 39,000  Level Cleveland Center
Fri 03:20:29 PM 40.9350 -82.6575 117° Southeast 482 555 39,000  Level Indianapolis Center
Fri 03:21:31 PM 40.8728 -82.5017 118° Southeast 479 551 39,000  Level Indianapolis Center
Fri 03:22:33 PM 40.8117 -82.3464 117° Southeast 476 548 39,000  Level Indianapolis Center
Fri 03:23:35 PM 40.7411 -82.1658 117° Southeast 474 545 39,000  Level Indianapolis Center
Fri 03:24:37 PM 40.6783 -82.0131 118° Southeast 472 543 39,000  Level Indianapolis Center
Fri 03:25:09 PM 40.6450 -81.9294 118° Southeast 473 544 39,000  Level Cleveland Center
Fri 03:26:09 PM 40.5800 -81.7750 119° Southeast 498 573 39,000  Level Cleveland Center
Fri 03:27:09 PM 40.5211 -81.6236 117° Southeast 488 562 39,000  Level Cleveland Center
Fri 03:28:09 PM 40.4556 -81.4617 118° Southeast 485 558 39,000  Level Cleveland Center
Fri 03:29:09 PM 40.4025 -81.3219 116° Southeast 485 558 39,000  Level Cleveland Center
Fri 03:30:09 PM 40.3347 -81.1633 119° Southeast 485 558 39,000  Level Cleveland Center
Fri 03:31:09 PM 40.2603 -80.9831 118° Southeast 491 565 39,000  Level Cleveland Center
Fri 03:32:09 PM 40.1961 -80.8250 118° Southeast 497 572 39,000 -300 Level Cleveland Center
Fri 03:33:09 PM 40.1275 -80.6617 119° Southeast 497 572 38,400 -750 Descending Cleveland Center
Fri 03:34:09 PM 40.0589 -80.5044 120° Southeast 497 572 37,500 -950 Descending Cleveland Center
Fri 03:35:09 PM 39.9919 -80.3447 119° Southeast 503 579 36,500 -950 Descending Cleveland Center
Fri 03:36:09 PM 39.9247 -80.1906 120° Southeast 503 579 35,600 -900 Descending Cleveland Center
Fri 03:37:09 PM 39.8617 -80.0286 117° Southeast 498 573 34,700 -918 Descending Cleveland Center
Fri 03:39:25 PM 39.7811 -79.6444 105° East 500 575 32,600 -1,133 Descending Washington Center
Fri 03:40:25 PM 39.7431 -79.4642 105° East 506 582 31,000 -2,300 Descending Washington Center
Fri 03:41:25 PM 39.7050 -79.2894 106° East 506 582 28,000 -2,850 Descending Washington Center
Fri 03:42:25 PM 39.6683 -79.1178 105° East 501 577 25,300 -1,500 Descending Washington Center
Fri 03:43:25 PM 39.6336 -78.9517 105° East 490 564 25,000 -150 Descending Washington Center
Fri 03:44:25 PM 39.5922 -78.7881 108° East 483 556 25,000 -1,000 Level Washington Center
Fri 03:45:25 PM 39.5550 -78.6089 105° East 478 550 23,000 -2,200 Descending Washington Center
Fri 03:46:25 PM 39.5231 -78.4703 107° East 453 521 20,600 -2,650 Descending Washington Center
Fri 03:47:25 PM 39.4872 -78.3047 106° East 443 510 17,700 -2,600 Descending Washington Center
Fri 03:48:25 PM 39.4569 -78.1692 106° East 436 502 15,400 -1,350 Descending Washington Center
Fri 03:49:25 PM 39.4261 -78.0419 107° East 419 482 15,000 -200 Descending Washington Center
Fri 03:50:25 PM 39.4256 -77.8619 90° East 419 482 15,000 -200 Level Washington Center
Fri 03:51:25 PM 39.4322 -77.7250 86° East 424 488 14,600 -1,400 Descending Washington Center
Fri 03:52:25 PM 39.4392 -77.5639 87° East 409 471 12,200 -1,650 Descending Washington Center
Fri 03:53:25 PM 39.4433 -77.4406 87° East 393 452 11,300 -545 Descending Washington Center
Fri 03:54:37 PM 39.4667 -77.2667 80° East 330 380 11,000 -273 Descending Potomac TRACON
Fri 03:55:37 PM 39.4667 -77.1500 90° East 321 369 10,700 -1,041 Descending Potomac TRACON
Fri 03:56:38 PM 39.4833 -77.0500 78° East 313 360 8,900 -1,736 Descending Potomac TRACON
Fri 03:57:38 PM 39.4667 -76.9500 102° East 290 334 7,200 -1,750 Descending Potomac TRACON
Fri 03:58:38 PM 39.4000 -76.8833 142° Southeast 270 311 5,400 -1,600 Descending Potomac TRACON
Fri 03:59:38 PM 39.3333 -76.9000 191° South 249 287 4,000 -1,421 Descending Potomac TRACON
Fri 04:00:32 PM 39.2833 -76.9000 180° South 255 293 2,700 -1,053 Descending Potomac TRACON
Fri 04:01:32 PM 39.2000 -76.9000 180° South 238 274 2,000 -347 Descending Potomac TRACON
Fri 04:02:33 PM 39.1833 -76.8333 108° East 207 238 2,000 -298 Level Potomac TRACON
Fri 04:03:33 PM 39.1833 -76.7667 90° East 163 188 1,400 -650 Descending Potomac TRACON
Fri 04:04:33 PM 39.1833 -76.7167 90° East 131 151 700 -700 Descending Potomac TRACON
Fri 04:06:00 PM 39.1667 -76.6667 142° Southeast  Level FlightAware
Fri 04:13:00 PM 39.1754 -76.6683 142° Southeast  Level Estimated
Fri 04:14:00 PM 39.1754 -76.6683 142° Southeast  Level Estimated
Fri 04:15:00 PM 39.1754 -76.6683 142° Southeast  Level Estimated
Fri 04:16:00 PM 39.1754 -76.6683 142° Southeast  Level Estimated
Fri 04:17:00 PM 39.1754 -76.6683 142° Southeast  Level Estimated

Login

Don't have an account? Register now (free) for customized features, flight alerts, and more!